createdAt,value
2022-08-07T00:02:37.371Z,68.90
2022-08-07T00:04:11.362Z,68.70
2022-08-07T00:06:51.562Z,69.00
2022-08-07T00:09:29.233Z,69.90
2022-08-07T00:12:02.709Z,69.70
2022-08-07T00:14:31.681Z,69.70
2022-08-07T00:17:01.766Z,69.60
2022-08-07T00:20:01.604Z,70.20
2022-08-07T00:22:34.547Z,69.90
2022-08-07T00:25:07.433Z,69.50
2022-08-07T00:27:53.188Z,69.90
2022-08-07T00:30:27.463Z,69.70
2022-08-07T00:33:00.029Z,70.50
2022-08-07T00:35:29.629Z,70.60
2022-08-07T00:37:58.777Z,70.40
2022-08-07T00:40:39.895Z,70.50
2022-08-07T00:44:01.715Z,70.80
2022-08-07T00:46:01.688Z,70.30
2022-08-07T00:48:30.991Z,70.80
2022-08-07T00:51:00.940Z,71.00
2022-08-07T00:53:39.162Z,71.00
2022-08-07T00:56:15.767Z,71.10
2022-08-07T00:58:46.865Z,71.00
2022-08-07T01:01:15.595Z,71.60
2022-08-07T01:03:56.344Z,71.70
2022-08-07T01:06:28.573Z,71.60
2022-08-07T01:09:00.809Z,72.10
2022-08-07T01:12:10.005Z,71.80
2022-08-07T01:14:28.475Z,71.80
2022-08-07T01:16:56.227Z,72.10
2022-08-07T01:19:24.888Z,71.50
2022-08-07T01:21:53.418Z,71.60
2022-08-07T01:24:23.078Z,72.20
2022-08-07T01:26:53.773Z,71.90
2022-08-07T01:29:27.695Z,71.80
2022-08-07T01:31:59.569Z,72.80
2022-08-07T01:34:31.141Z,72.50
2022-08-07T01:36:58.924Z,72.70
2022-08-07T01:39:41.266Z,72.20
2022-08-07T01:42:39.473Z,72.60
2022-08-07T01:45:04.290Z,73.00
2022-08-07T01:48:18.091Z,73.00
2022-08-07T01:50:22.823Z,73.20
2022-08-07T01:52:58.374Z,74.00
2022-08-07T01:55:33.665Z,73.60
2022-08-07T01:58:06.528Z,74.30
2022-08-07T02:01:09.415Z,74.20
2022-08-07T02:03:48.925Z,74.50
2022-08-07T02:06:31.396Z,74.40
2022-08-07T02:09:04.704Z,74.30
2022-08-07T02:12:04.213Z,73.30
2022-08-07T02:14:36.000Z,73.40
2022-08-07T02:17:04.579Z,73.20
2022-08-07T02:20:07.669Z,73.00
2022-08-07T02:22:25.814Z,73.30
2022-08-07T02:24:56.131Z,73.10
2022-08-07T02:27:26.476Z,73.40
2022-08-07T02:30:07.097Z,73.10
2022-08-07T02:32:39.634Z,73.00
2022-08-07T02:36:30.214Z,73.20
2022-08-07T02:38:15.801Z,72.50
2022-08-07T02:40:46.666Z,72.50
2022-08-07T02:43:15.589Z,72.60
2022-08-07T02:45:58.921Z,72.90
2022-08-07T02:48:30.065Z,72.40
2022-08-07T02:51:04.246Z,72.70
2022-08-07T02:53:39.002Z,73.30
2022-08-07T02:56:17.389Z,73.50
2022-08-07T02:58:53.943Z,73.50
2022-08-07T03:01:35.261Z,74.00
2022-08-07T03:04:07.762Z,74.00
2022-08-07T03:06:41.998Z,74.20
2022-08-07T03:09:12.114Z,74.20
2022-08-07T03:11:52.236Z,73.50
2022-08-07T03:14:25.821Z,73.70
2022-08-07T03:16:52.965Z,73.50
2022-08-07T03:19:20.778Z,73.80
2022-08-07T03:21:50.939Z,73.40
2022-08-07T03:24:27.540Z,73.50
2022-08-07T03:26:59.154Z,73.40
2022-08-07T03:29:33.929Z,72.50
2022-08-07T03:32:07.428Z,72.90
2022-08-07T03:34:47.253Z,72.30
2022-08-07T03:37:32.510Z,72.30
2022-08-07T03:40:15.524Z,71.70
2022-08-07T03:42:44.303Z,71.70
2022-08-07T03:45:12.750Z,71.60
2022-08-07T03:47:58.471Z,71.70
2022-08-07T03:50:28.673Z,71.30
2022-08-07T03:52:59.492Z,70.60
2022-08-07T03:55:52.887Z,71.00
2022-08-07T03:59:05.242Z,70.60
2022-08-07T04:01:07.594Z,70.80
2022-08-07T04:03:53.192Z,69.80
2022-08-07T04:06:36.163Z,70.20
2022-08-07T04:09:06.022Z,69.70
2022-08-07T04:12:28.508Z,69.40
2022-08-07T04:14:37.411Z,68.20
2022-08-07T04:17:19.951Z,66.10
2022-08-07T04:19:52.170Z,63.00
2022-08-07T04:22:29.010Z,61.70
2022-08-07T04:24:58.870Z,60.10
2022-08-07T04:27:28.770Z,59.10
2022-08-07T04:30:04.461Z,58.40
2022-08-07T04:32:35.103Z,57.80
2022-08-07T04:35:05.359Z,57.00
2022-08-07T04:37:52.705Z,56.30
2022-08-07T04:40:22.633Z,55.80
2022-08-07T04:43:01.253Z,55.20
2022-08-07T04:45:57.591Z,54.90
2022-08-07T04:48:56.697Z,54.30
2022-08-07T04:51:51.204Z,53.70
2022-08-07T04:54:31.752Z,53.20
2022-08-07T04:58:23.668Z,51.90
2022-08-07T05:00:56.128Z,51.20
2022-08-07T05:04:06.686Z,50.30
2022-08-07T05:06:54.680Z,49.80
2022-08-07T05:09:45.745Z,49.20
2022-08-07T05:12:27.303Z,47.80
2022-08-07T05:15:04.899Z,45.90
2022-08-07T05:17:52.868Z,44.00
2022-08-07T05:20:27.092Z,42.20
2022-08-07T05:22:59.736Z,40.60
2022-08-07T05:25:36.623Z,39.50
2022-08-07T05:28:22.740Z,38.80
2022-08-07T05:30:53.428Z,38.00
2022-08-07T05:33:21.801Z,37.50
2022-08-07T05:35:51.501Z,37.10
2022-08-07T05:38:58.095Z,36.70
2022-08-07T05:41:14.043Z,36.60
2022-08-07T05:44:08.710Z,36.40
2022-08-07T05:46:37.290Z,36.10
2022-08-07T05:49:11.975Z,36.00
2022-08-07T05:51:46.366Z,35.90
2022-08-07T05:54:30.905Z,35.60
2022-08-07T05:57:03.466Z,35.50
2022-08-07T05:59:38.740Z,35.40
2022-08-07T06:02:21.537Z,35.00
2022-08-07T06:04:59.563Z,34.90
2022-08-07T06:08:14.775Z,34.90
2022-08-07T06:10:15.805Z,34.80
2022-08-07T06:12:42.899Z,34.50
2022-08-07T06:15:16.463Z,34.60
2022-08-07T06:17:53.354Z,34.50
2022-08-07T06:20:31.825Z,34.30
2022-08-07T06:23:45.781Z,34.30
2022-08-07T06:26:01.515Z,34.40
2022-08-07T06:28:29.118Z,34.50
2022-08-07T06:30:58.303Z,34.20
2022-08-07T06:33:26.498Z,34.20
2022-08-07T06:36:13.326Z,34.20
2022-08-07T06:38:58.556Z,34.10
2022-08-07T06:42:00.677Z,34.20
2022-08-07T06:44:31.198Z,33.60
2022-08-07T06:47:12.086Z,33.70
2022-08-07T06:49:52.068Z,33.50
2022-08-07T06:52:32.095Z,33.60
2022-08-07T06:55:31.346Z,33.80
2022-08-07T06:58:04.244Z,33.90
2022-08-07T07:00:39.283Z,33.90
2022-08-07T07:03:13.569Z,33.90
2022-08-07T07:06:03.766Z,34.10
2022-08-07T07:08:33.172Z,33.90
2022-08-07T07:11:12.976Z,33.70
2022-08-07T07:13:57.532Z,33.60
2022-08-07T07:16:45.088Z,33.40
2022-08-07T07:19:57.605Z,33.40
2022-08-07T07:22:35.688Z,33.40
2022-08-07T07:26:30.894Z,33.00
2022-08-07T07:28:07.822Z,33.00
2022-08-07T07:30:59.093Z,33.10
2022-08-07T07:33:28.445Z,33.10
2022-08-07T07:36:04.593Z,33.10
2022-08-07T07:38:34.755Z,32.80
2022-08-07T07:41:08.649Z,32.80
2022-08-07T07:44:14.881Z,32.30
2022-08-07T07:46:40.124Z,32.40
2022-08-07T07:50:29.627Z,32.30
2022-08-07T07:52:08.200Z,32.00
2022-08-07T07:54:37.734Z,32.00
2022-08-07T07:57:08.984Z,31.80
2022-08-07T07:59:52.080Z,32.00
2022-08-07T08:02:35.424Z,32.00
2022-08-07T08:05:03.637Z,32.00
2022-08-07T08:07:35.635Z,31.70
2022-08-07T08:10:14.889Z,31.40
2022-08-07T08:13:00.238Z,31.10
2022-08-07T08:15:43.647Z,31.00
2022-08-07T08:18:24.393Z,30.60
2022-08-07T08:20:52.630Z,31.00
2022-08-07T08:23:41.342Z,30.90
2022-08-07T08:26:27.848Z,31.50
2022-08-07T08:28:56.921Z,32.10
2022-08-07T08:31:58.609Z,33.10
2022-08-07T08:34:27.140Z,34.00
2022-08-07T08:36:58.419Z,33.80
2022-08-07T08:39:39.694Z,32.70
2022-08-07T08:42:43.340Z,32.60
2022-08-07T08:45:14.094Z,33.20
2022-08-07T08:48:19.951Z,33.50
2022-08-07T08:51:14.656Z,34.90
2022-08-07T08:54:00.045Z,36.10
2022-08-07T08:56:53.977Z,36.90
2022-08-07T08:59:48.409Z,37.60
2022-08-07T09:02:36.576Z,37.40
2022-08-07T09:05:36.699Z,37.00
2022-08-07T09:08:17.806Z,35.30
2022-08-07T09:11:10.838Z,33.00
2022-08-07T09:13:59.194Z,32.50
2022-08-07T09:16:29.988Z,31.70
2022-08-07T09:19:00.664Z,30.80
2022-08-07T09:22:36.558Z,30.20
2022-08-07T09:25:27.930Z,29.70
2022-08-07T09:28:06.231Z,29.40
2022-08-07T09:31:13.364Z,29.30
2022-08-07T09:34:26.283Z,29.30
2022-08-07T09:37:47.858Z,29.10
2022-08-07T09:40:30.086Z,29.70
2022-08-07T09:43:00.884Z,30.70
2022-08-07T09:47:23.773Z,32.80
2022-08-07T09:48:56.175Z,34.20
2022-08-07T09:52:16.092Z,35.40
2022-08-07T09:54:51.293Z,36.30
2022-08-07T09:57:47.464Z,37.00
2022-08-07T10:00:29.867Z,37.50
2022-08-07T10:03:08.173Z,37.30
2022-08-07T10:06:00.767Z,36.30
2022-08-07T10:08:49.552Z,35.10
2022-08-07T10:12:01.259Z,33.60
2022-08-07T10:14:31.440Z,33.50
2022-08-07T10:17:24.176Z,34.30
2022-08-07T10:20:20.717Z,33.80
2022-08-07T10:22:55.188Z,33.70
2022-08-07T10:25:43.217Z,34.10
2022-08-07T10:28:19.059Z,33.80
2022-08-07T10:31:15.137Z,33.40
2022-08-07T10:34:15.089Z,33.70
2022-08-07T10:37:12.770Z,34.20
2022-08-07T10:40:02.894Z,35.90
2022-08-07T10:42:36.912Z,36.60
2022-08-07T10:45:44.862Z,37.00
2022-08-07T10:48:57.096Z,37.40
2022-08-07T10:51:39.178Z,38.50
2022-08-07T10:54:38.155Z,39.00
2022-08-07T10:57:13.822Z,39.40
2022-08-07T10:59:53.632Z,39.80
2022-08-07T11:02:35.822Z,40.10
2022-08-07T11:05:35.768Z,40.00
2022-08-07T11:08:45.852Z,39.40
2022-08-07T11:11:25.911Z,38.40
2022-08-07T11:14:44.639Z,37.50
2022-08-07T11:17:13.207Z,37.50
2022-08-07T11:19:58.226Z,37.80
2022-08-07T11:22:38.230Z,37.80
2022-08-07T11:25:30.558Z,38.00
2022-08-07T11:28:35.572Z,37.90
2022-08-07T11:32:02.097Z,37.80
2022-08-07T11:34:29.231Z,38.10
2022-08-07T11:37:58.318Z,38.10
2022-08-07T11:41:09.695Z,38.30
2022-08-07T11:44:12.048Z,38.30
2022-08-07T11:46:56.445Z,38.40
2022-08-07T11:50:11.145Z,38.50
2022-08-07T11:52:48.129Z,38.70
2022-08-07T11:56:18.457Z,38.80
2022-08-07T11:59:22.053Z,38.80
2022-08-07T12:02:20.569Z,38.90
2022-08-07T12:05:09.081Z,39.50
2022-08-07T12:08:03.696Z,38.40
2022-08-07T12:10:41.771Z,39.60
2022-08-07T12:13:42.163Z,39.90
2022-08-07T12:16:30.351Z,39.70
2022-08-07T12:19:14.770Z,39.80
2022-08-07T12:22:39.648Z,39.30
2022-08-07T12:26:00.802Z,39.70
2022-08-07T12:28:40.225Z,39.90
2022-08-07T12:31:53.271Z,39.70
2022-08-07T12:34:18.471Z,39.70
2022-08-07T12:36:49.514Z,39.90
2022-08-07T12:39:43.761Z,40.40
2022-08-07T12:42:13.013Z,40.90
2022-08-07T12:44:45.046Z,40.90
2022-08-07T12:47:31.132Z,41.10
2022-08-07T12:50:05.232Z,40.80
2022-08-07T12:53:01.210Z,41.90
2022-08-07T12:55:41.122Z,41.90
2022-08-07T12:58:35.258Z,42.10
2022-08-07T13:01:18.463Z,42.50
2022-08-07T13:04:34.289Z,42.50
2022-08-07T13:08:14.363Z,42.40
2022-08-07T13:10:51.434Z,42.70
2022-08-07T13:14:09.011Z,43.20
2022-08-07T13:16:46.706Z,42.90
2022-08-07T13:19:51.624Z,42.80
2022-08-07T13:22:28.375Z,43.40
2022-08-07T13:25:05.928Z,43.00
2022-08-07T13:28:12.659Z,42.60
2022-08-07T13:30:40.439Z,42.40
2022-08-07T13:34:29.963Z,41.70
2022-08-07T13:36:17.724Z,41.90
2022-08-07T13:38:58.855Z,41.20
2022-08-07T13:41:41.347Z,42.10
2022-08-07T13:44:10.701Z,42.10
2022-08-07T13:46:49.190Z,42.60
2022-08-07T13:50:35.436Z,42.20
2022-08-07T13:52:30.581Z,42.50
2022-08-07T13:55:00.780Z,42.60
2022-08-07T13:57:38.500Z,42.30
2022-08-07T14:00:08.656Z,42.40
2022-08-07T14:02:56.198Z,42.70
2022-08-07T14:05:24.959Z,42.40
2022-08-07T14:08:07.105Z,42.30
2022-08-07T14:10:42.407Z,42.40
2022-08-07T14:13:18.631Z,43.20
2022-08-07T14:15:53.244Z,43.50
2022-08-07T14:18:44.473Z,43.60
2022-08-07T14:22:03.462Z,43.40
2022-08-07T14:24:22.996Z,43.50
2022-08-07T14:26:58.663Z,43.50
2022-08-07T14:30:07.430Z,43.20
2022-08-07T14:32:25.860Z,43.50
2022-08-07T14:34:55.089Z,43.50
2022-08-07T14:37:36.415Z,43.60
2022-08-07T14:40:17.299Z,43.70
2022-08-07T14:43:56.962Z,43.70
2022-08-07T14:45:55.792Z,43.20
2022-08-07T14:48:27.697Z,43.60
2022-08-07T14:50:57.939Z,43.70
2022-08-07T14:54:05.668Z,43.80
2022-08-07T14:56:29.514Z,43.00
2022-08-07T14:59:02.145Z,43.10
2022-08-07T15:01:42.859Z,43.20
2022-08-07T15:04:19.032Z,43.70
2022-08-07T15:06:48.941Z,44.20
2022-08-07T15:09:58.273Z,44.40
2022-08-07T15:12:26.121Z,44.00
2022-08-07T15:15:09.275Z,44.70
2022-08-07T15:17:57.631Z,44.70
2022-08-07T15:20:35.749Z,44.80
2022-08-07T15:26:20.872Z,45.50
2022-08-07T15:32:01.161Z,45.50
2022-08-07T15:38:17.198Z,46.00
2022-08-07T15:40:34.272Z,46.00
2022-08-07T15:43:52.977Z,45.80
2022-08-07T15:46:31.728Z,45.90
2022-08-07T15:49:15.161Z,45.90
2022-08-07T15:54:33.930Z,46.50
2022-08-07T15:57:05.076Z,46.80
2022-08-07T15:59:39.747Z,46.70
2022-08-07T16:02:23.604Z,47.00
2022-08-07T16:04:57.899Z,47.30
2022-08-07T16:08:31.423Z,47.50
2022-08-07T16:10:25.689Z,48.00
2022-08-07T16:13:59.158Z,48.40
2022-08-07T16:16:48.583Z,48.80
2022-08-07T16:19:19.915Z,49.20
2022-08-07T16:22:36.386Z,49.60
2022-08-07T16:25:52.461Z,50.20
2022-08-07T16:30:07.483Z,50.60
2022-08-07T16:31:51.128Z,50.70
2022-08-07T16:34:48.508Z,51.00
2022-08-07T16:38:06.925Z,50.60
2022-08-07T16:40:36.003Z,50.80
2022-08-07T16:43:24.706Z,51.30
2022-08-07T16:47:07.741Z,50.80
2022-08-07T16:50:26.636Z,51.40
2022-08-07T16:54:02.608Z,50.90
2022-08-07T16:56:14.863Z,50.90
2022-08-07T16:59:11.364Z,50.80
2022-08-07T17:02:51.213Z,51.10
2022-08-07T17:06:19.399Z,51.50
2022-08-07T17:08:05.792Z,51.90
2022-08-07T17:10:54.201Z,52.10
2022-08-07T17:14:18.937Z,51.70
2022-08-07T17:16:58.501Z,51.50
2022-08-07T17:20:02.055Z,51.90
2022-08-07T17:22:45.640Z,51.80
2022-08-07T17:25:20.159Z,51.80
2022-08-07T17:28:17.685Z,52.50
2022-08-07T17:31:16.637Z,52.30
2022-08-07T17:34:32.657Z,52.40
2022-08-07T17:37:09.206Z,52.40
2022-08-07T17:40:08.661Z,53.00
2022-08-07T17:42:36.000Z,53.10
2022-08-07T17:45:47.276Z,52.80
2022-08-07T17:48:31.047Z,52.90
2022-08-07T17:51:07.593Z,52.90
2022-08-07T17:54:01.474Z,52.90
2022-08-07T17:56:49.395Z,53.30
2022-08-07T17:59:19.932Z,53.00
2022-08-07T18:01:56.584Z,53.30
2022-08-07T18:04:31.111Z,53.30
2022-08-07T18:07:20.480Z,53.90
2022-08-07T18:10:05.834Z,53.90
2022-08-07T18:12:52.755Z,54.00
2022-08-07T18:15:32.865Z,54.10
2022-08-07T18:18:45.478Z,54.10
2022-08-07T18:21:40.157Z,54.20
2022-08-07T18:24:09.038Z,54.30
2022-08-07T18:26:57.467Z,54.30
2022-08-07T18:30:08.295Z,54.40
2022-08-07T18:32:35.783Z,54.60
2022-08-07T18:35:52.112Z,54.40
2022-08-07T18:38:55.628Z,54.50
2022-08-07T18:41:45.891Z,54.60
2022-08-07T18:44:25.002Z,54.80
2022-08-07T18:47:23.997Z,54.80
2022-08-07T18:50:32.779Z,54.60
2022-08-07T18:53:13.922Z,54.80
2022-08-07T18:56:08.128Z,55.00
2022-08-07T18:59:05.023Z,55.10
2022-08-07T19:02:32.103Z,55.10
2022-08-07T19:04:39.693Z,55.00
2022-08-07T19:07:51.543Z,54.70
2022-08-07T19:10:49.621Z,54.90
2022-08-07T19:13:37.518Z,54.80
2022-08-07T19:16:43.087Z,54.70
2022-08-07T19:19:31.629Z,54.60
2022-08-07T19:22:07.484Z,54.80
2022-08-07T19:24:46.320Z,54.20
2022-08-07T19:29:03.546Z,54.50
2022-08-07T19:31:06.452Z,54.10
2022-08-07T19:33:08.287Z,53.70
2022-08-07T19:35:42.312Z,53.80
2022-08-07T19:38:17.544Z,53.10
2022-08-07T19:40:49.463Z,52.50
2022-08-07T19:43:43.677Z,52.50
2022-08-07T19:46:14.643Z,53.20
2022-08-07T19:48:53.506Z,53.20
2022-08-07T19:51:51.174Z,52.60
2022-08-07T19:54:44.012Z,52.70
2022-08-07T19:58:02.491Z,52.40
2022-08-07T19:59:53.267Z,52.80
2022-08-07T20:02:31.495Z,52.70
2022-08-07T20:05:00.430Z,52.20
2022-08-07T20:07:46.132Z,52.40
2022-08-07T20:10:36.940Z,53.00
2022-08-07T20:13:06.918Z,52.90
2022-08-07T20:15:50.556Z,52.50
2022-08-07T20:18:19.957Z,51.60
2022-08-07T20:20:47.624Z,52.10
2022-08-07T20:23:32.789Z,52.60
2022-08-07T20:26:09.893Z,52.30
2022-08-07T20:28:40.620Z,52.40
2022-08-07T20:31:21.027Z,52.50
2022-08-07T20:33:56.345Z,52.90
2022-08-07T20:36:26.742Z,52.40
2022-08-07T20:39:00.678Z,52.30
2022-08-07T20:41:42.525Z,52.70
2022-08-07T20:44:13.161Z,52.70
2022-08-07T20:46:44.202Z,52.70
2022-08-07T20:50:01.030Z,52.80
2022-08-07T20:52:13.772Z,52.80
2022-08-07T20:54:53.479Z,52.70
2022-08-07T20:57:38.632Z,52.60
2022-08-07T21:00:17.863Z,53.00
2022-08-07T21:02:58.846Z,53.10
2022-08-07T21:05:50.550Z,53.30
2022-08-07T21:08:36.661Z,52.60
2022-08-07T21:11:07.459Z,52.70
2022-08-07T21:13:57.595Z,52.40
2022-08-07T21:18:00.485Z,52.90
2022-08-07T21:19:51.125Z,53.10
2022-08-07T21:22:19.751Z,53.10
2022-08-07T21:24:49.629Z,52.90
2022-08-07T21:27:39.920Z,52.60
2022-08-07T21:30:18.107Z,53.00
2022-08-07T21:32:52.864Z,53.00
2022-08-07T21:35:34.970Z,53.20
2022-08-07T21:38:16.312Z,53.20
2022-08-07T21:41:10.984Z,53.30
2022-08-07T21:44:07.775Z,53.10
2022-08-07T21:46:52.611Z,53.40
2022-08-07T21:50:00.913Z,53.80
2022-08-07T21:52:48.391Z,53.10
2022-08-07T21:55:30.063Z,53.10
2022-08-07T21:58:32.293Z,53.30
2022-08-07T22:01:21.182Z,53.40
2022-08-07T22:04:20.380Z,53.60
2022-08-07T22:07:00.748Z,53.80
2022-08-07T22:09:53.694Z,53.50
2022-08-07T22:12:31.467Z,53.40
2022-08-07T22:16:44.425Z,53.50
2022-08-07T22:18:14.534Z,53.70
2022-08-07T22:20:52.921Z,53.70
2022-08-07T22:23:36.201Z,53.60
2022-08-07T22:26:35.253Z,53.70
2022-08-07T22:29:17.472Z,53.90
2022-08-07T22:32:12.350Z,53.80
2022-08-07T22:34:56.285Z,53.80
2022-08-07T22:38:02.687Z,53.90
2022-08-07T22:41:03.492Z,54.00
2022-08-07T22:43:58.827Z,54.20
2022-08-07T22:47:03.881Z,54.00
2022-08-07T22:50:10.996Z,54.20
2022-08-07T22:53:06.490Z,54.40
2022-08-07T22:55:51.033Z,54.10
2022-08-07T22:58:28.166Z,54.30
2022-08-07T23:01:12.710Z,54.50
2022-08-07T23:03:58.883Z,54.40
2022-08-07T23:06:51.344Z,54.60
2022-08-07T23:10:05.945Z,54.80
2022-08-07T23:12:46.537Z,54.80
2022-08-07T23:16:06.795Z,54.60
2022-08-07T23:19:14.525Z,54.70
2022-08-07T23:21:55.275Z,54.50
2022-08-07T23:24:27.901Z,54.60
2022-08-07T23:27:33.764Z,54.70
2022-08-07T23:30:39.253Z,54.60
2022-08-07T23:34:21.983Z,54.70
2022-08-07T23:36:29.131Z,55.00
2022-08-07T23:39:22.140Z,54.90
2022-08-07T23:42:09.603Z,55.00
2022-08-07T23:44:45.245Z,54.30
2022-08-07T23:47:30.739Z,54.60
2022-08-07T23:50:36.839Z,54.50
2022-08-07T23:53:21.981Z,54.40
2022-08-07T23:56:11.897Z,54.50
2022-08-07T23:58:59.933Z,54.40
